sensor_id;sensor_type;location;lat;lon;timestamp;P1;durP1;ratioP1;P2;durP2;ratioP2
21352;SDS011;10834;52.268;6.770;2022-07-29T00:01:38;0.98;;;0.95;;
21352;SDS011;10834;52.268;6.770;2022-07-29T00:04:24;1.55;;;0.98;;
21352;SDS011;10834;52.268;6.770;2022-07-29T00:07:10;0.98;;;0.90;;
21352;SDS011;10834;52.268;6.770;2022-07-29T00:09:56;1.05;;;0.95;;
21352;SDS011;10834;52.268;6.770;2022-07-29T00:12:42;0.88;;;0.88;;
21352;SDS011;10834;52.268;6.770;2022-07-29T00:15:28;0.70;;;0.70;;
21352;SDS011;10834;52.268;6.770;2022-07-29T00:18:14;0.85;;;0.82;;
21352;SDS011;10834;52.268;6.770;2022-07-29T00:21:01;1.30;;;1.20;;
21352;SDS011;10834;52.268;6.770;2022-07-29T00:23:47;1.25;;;0.90;;
21352;SDS011;10834;52.268;6.770;2022-07-29T00:26:33;0.85;;;0.85;;
21352;SDS011;10834;52.268;6.770;2022-07-29T00:29:19;0.85;;;0.75;;
21352;SDS011;10834;52.268;6.770;2022-07-29T00:32:05;0.88;;;0.80;;
21352;SDS011;10834;52.268;6.770;2022-07-29T00:34:51;0.82;;;0.80;;
21352;SDS011;10834;52.268;6.770;2022-07-29T00:37:56;1.08;;;0.98;;
21352;SDS011;10834;52.268;6.770;2022-07-29T00:40:42;0.80;;;0.80;;
21352;SDS011;10834;52.268;6.770;2022-07-29T00:43:30;1.33;;;1.23;;
21352;SDS011;10834;52.268;6.770;2022-07-29T00:46:16;1.08;;;0.98;;
21352;SDS011;10834;52.268;6.770;2022-07-29T00:49:02;0.85;;;0.73;;
21352;SDS011;10834;52.268;6.770;2022-07-29T00:51:48;1.08;;;1.08;;
21352;SDS011;10834;52.268;6.770;2022-07-29T00:54:35;0.68;;;0.68;;
21352;SDS011;10834;52.268;6.770;2022-07-29T00:57:23;0.98;;;0.98;;
21352;SDS011;10834;52.268;6.770;2022-07-29T01:00:10;0.80;;;0.80;;
21352;SDS011;10834;52.268;6.770;2022-07-29T01:02:58;1.10;;;1.00;;
21352;SDS011;10834;52.268;6.770;2022-07-29T01:05:44;1.80;;;1.00;;
21352;SDS011;10834;52.268;6.770;2022-07-29T01:08:31;0.98;;;0.70;;
21352;SDS011;10834;52.268;6.770;2022-07-29T01:11:18;1.58;;;1.05;;
21352;SDS011;10834;52.268;6.770;2022-07-29T01:14:05;0.70;;;0.70;;
21352;SDS011;10834;52.268;6.770;2022-07-29T01:16:54;0.80;;;0.80;;
21352;SDS011;10834;52.268;6.770;2022-07-29T01:19:52;0.95;;;0.90;;
21352;SDS011;10834;52.268;6.770;2022-07-29T01:28:58;1.13;;;1.02;;
21352;SDS011;10834;52.268;6.770;2022-07-29T01:32:14;1.05;;;0.80;;
21352;SDS011;10834;52.268;6.770;2022-07-29T01:35:05;1.13;;;0.98;;
21352;SDS011;10834;52.268;6.770;2022-07-29T01:38:08;0.90;;;0.90;;
21352;SDS011;10834;52.268;6.770;2022-07-29T01:41:08;1.80;;;1.00;;
21352;SDS011;10834;52.268;6.770;2022-07-29T01:44:01;1.20;;;1.10;;
21352;SDS011;10834;52.268;6.770;2022-07-29T01:46:57;1.40;;;1.30;;
21352;SDS011;10834;52.268;6.770;2022-07-29T01:49:50;1.23;;;1.13;;
21352;SDS011;10834;52.268;6.770;2022-07-29T01:55:46;0.85;;;0.80;;
21352;SDS011;10834;52.268;6.770;2022-07-29T01:58:33;0.93;;;0.85;;
21352;SDS011;10834;52.268;6.770;2022-07-29T02:01:23;0.88;;;0.88;;
21352;SDS011;10834;52.268;6.770;2022-07-29T02:04:12;1.05;;;0.77;;
21352;SDS011;10834;52.268;6.770;2022-07-29T02:07:03;1.10;;;1.00;;
21352;SDS011;10834;52.268;6.770;2022-07-29T02:09:52;1.60;;;0.90;;
21352;SDS011;10834;52.268;6.770;2022-07-29T02:12:40;1.08;;;1.00;;
21352;SDS011;10834;52.268;6.770;2022-07-29T02:15:29;1.10;;;1.00;;
21352;SDS011;10834;52.268;6.770;2022-07-29T02:18:18;0.70;;;0.70;;
21352;SDS011;10834;52.268;6.770;2022-07-29T02:21:07;0.95;;;0.95;;
21352;SDS011;10834;52.268;6.770;2022-07-29T02:23:55;1.45;;;0.82;;
21352;SDS011;10834;52.268;6.770;2022-07-29T02:26:44;1.00;;;0.90;;
21352;SDS011;10834;52.268;6.770;2022-07-29T02:29:33;0.95;;;0.95;;
21352;SDS011;10834;52.268;6.770;2022-07-29T02:32:21;1.05;;;0.98;;
21352;SDS011;10834;52.268;6.770;2022-07-29T02:35:09;0.95;;;0.90;;
21352;SDS011;10834;52.268;6.770;2022-07-29T02:37:58;1.30;;;1.20;;
21352;SDS011;10834;52.268;6.770;2022-07-29T02:41:10;1.30;;;1.10;;
21352;SDS011;10834;52.268;6.770;2022-07-29T02:44:03;1.20;;;1.10;;
21352;SDS011;10834;52.268;6.770;2022-07-29T02:46:59;1.08;;;0.98;;
21352;SDS011;10834;52.268;6.770;2022-07-29T02:50:06;0.80;;;0.80;;
21352;SDS011;10834;52.268;6.770;2022-07-29T02:52:57;0.80;;;0.80;;
21352;SDS011;10834;52.268;6.770;2022-07-29T02:56:13;1.77;;;0.80;;
21352;SDS011;10834;52.268;6.770;2022-07-29T02:59:03;0.98;;;0.95;;
21352;SDS011;10834;52.268;6.770;2022-07-29T03:01:54;0.70;;;0.65;;
21352;SDS011;10834;52.268;6.770;2022-07-29T03:04:43;0.77;;;0.77;;
21352;SDS011;10834;52.268;6.770;2022-07-29T03:07:30;0.93;;;0.73;;
21352;SDS011;10834;52.268;6.770;2022-07-29T03:10:18;1.17;;;1.10;;
21352;SDS011;10834;52.268;6.770;2022-07-29T03:13:04;0.85;;;0.85;;
21352;SDS011;10834;52.268;6.770;2022-07-29T03:15:51;1.00;;;0.90;;
21352;SDS011;10834;52.268;6.770;2022-07-29T03:18:38;1.65;;;1.42;;
21352;SDS011;10834;52.268;6.770;2022-07-29T03:21:24;0.60;;;0.55;;
21352;SDS011;10834;52.268;6.770;2022-07-29T03:24:23;0.98;;;0.90;;
21352;SDS011;10834;52.268;6.770;2022-07-29T03:27:13;1.15;;;1.05;;
21352;SDS011;10834;52.268;6.770;2022-07-29T03:30:00;0.80;;;0.80;;
21352;SDS011;10834;52.268;6.770;2022-07-29T03:32:45;0.70;;;0.70;;
21352;SDS011;10834;52.268;6.770;2022-07-29T03:35:31;1.05;;;1.00;;
21352;SDS011;10834;52.268;6.770;2022-07-29T03:38:17;0.90;;;0.90;;
21352;SDS011;10834;52.268;6.770;2022-07-29T03:41:05;0.88;;;0.88;;
21352;SDS011;10834;52.268;6.770;2022-07-29T03:43:55;0.70;;;0.70;;
21352;SDS011;10834;52.268;6.770;2022-07-29T03:46:44;0.77;;;0.77;;
21352;SDS011;10834;52.268;6.770;2022-07-29T03:49:31;0.70;;;0.70;;
21352;SDS011;10834;52.268;6.770;2022-07-29T03:52:20;1.08;;;0.82;;
21352;SDS011;10834;52.268;6.770;2022-07-29T03:55:07;0.75;;;0.75;;
21352;SDS011;10834;52.268;6.770;2022-07-29T03:57:54;0.85;;;0.75;;
21352;SDS011;10834;52.268;6.770;2022-07-29T04:00:42;0.90;;;0.90;;
21352;SDS011;10834;52.268;6.770;2022-07-29T04:03:28;1.05;;;0.98;;
21352;SDS011;10834;52.268;6.770;2022-07-29T04:06:15;0.88;;;0.88;;
21352;SDS011;10834;52.268;6.770;2022-07-29T04:09:01;1.00;;;1.00;;
21352;SDS011;10834;52.268;6.770;2022-07-29T04:11:47;1.10;;;1.00;;
21352;SDS011;10834;52.268;6.770;2022-07-29T04:14:34;1.25;;;0.95;;
21352;SDS011;10834;52.268;6.770;2022-07-29T04:17:20;1.25;;;1.00;;
21352;SDS011;10834;52.268;6.770;2022-07-29T04:20:06;1.00;;;0.90;;
21352;SDS011;10834;52.268;6.770;2022-07-29T04:22:53;1.17;;;1.08;;
21352;SDS011;10834;52.268;6.770;2022-07-29T04:25:40;1.23;;;1.13;;
21352;SDS011;10834;52.268;6.770;2022-07-29T04:28:28;1.30;;;1.10;;
21352;SDS011;10834;52.268;6.770;2022-07-29T04:31:14;1.48;;;1.00;;
21352;SDS011;10834;52.268;6.770;2022-07-29T04:34:00;0.73;;;0.73;;
21352;SDS011;10834;52.268;6.770;2022-07-29T04:36:46;1.10;;;1.00;;
21352;SDS011;10834;52.268;6.770;2022-07-29T04:39:32;1.00;;;0.90;;
21352;SDS011;10834;52.268;6.770;2022-07-29T04:42:18;1.40;;;0.80;;
21352;SDS011;10834;52.268;6.770;2022-07-29T04:45:04;1.25;;;0.95;;
21352;SDS011;10834;52.268;6.770;2022-07-29T04:47:51;1.13;;;1.02;;
21352;SDS011;10834;52.268;6.770;2022-07-29T04:50:40;1.08;;;1.00;;
21352;SDS011;10834;52.268;6.770;2022-07-29T04:53:26;1.48;;;1.00;;
21352;SDS011;10834;52.268;6.770;2022-07-29T04:56:12;0.80;;;0.80;;
21352;SDS011;10834;52.268;6.770;2022-07-29T04:58:58;0.95;;;0.95;;
21352;SDS011;10834;52.268;6.770;2022-07-29T05:01:44;0.98;;;0.80;;
21352;SDS011;10834;52.268;6.770;2022-07-29T05:04:30;0.80;;;0.80;;
21352;SDS011;10834;52.268;6.770;2022-07-29T05:07:16;1.63;;;0.75;;
21352;SDS011;10834;52.268;6.770;2022-07-29T05:10:02;1.15;;;0.90;;
21352;SDS011;10834;52.268;6.770;2022-07-29T05:12:49;2.00;;;1.00;;
21352;SDS011;10834;52.268;6.770;2022-07-29T05:15:36;0.73;;;0.73;;
21352;SDS011;10834;52.268;6.770;2022-07-29T05:18:23;0.70;;;0.70;;
21352;SDS011;10834;52.268;6.770;2022-07-29T05:21:10;1.30;;;1.10;;
21352;SDS011;10834;52.268;6.770;2022-07-29T05:23:57;1.67;;;0.82;;
21352;SDS011;10834;52.268;6.770;2022-07-29T05:26:43;0.98;;;0.93;;
21352;SDS011;10834;52.268;6.770;2022-07-29T05:29:29;1.17;;;1.00;;
21352;SDS011;10834;52.268;6.770;2022-07-29T05:32:15;0.80;;;0.80;;
21352;SDS011;10834;52.268;6.770;2022-07-29T05:35:01;1.35;;;1.00;;
21352;SDS011;10834;52.268;6.770;2022-07-29T05:37:47;0.70;;;0.70;;
21352;SDS011;10834;52.268;6.770;2022-07-29T05:40:33;0.70;;;0.70;;
21352;SDS011;10834;52.268;6.770;2022-07-29T05:43:19;0.93;;;0.90;;
21352;SDS011;10834;52.268;6.770;2022-07-29T05:46:06;0.70;;;0.70;;
21352;SDS011;10834;52.268;6.770;2022-07-29T05:48:52;1.00;;;0.90;;
21352;SDS011;10834;52.268;6.770;2022-07-29T05:51:39;1.10;;;0.95;;
21352;SDS011;10834;52.268;6.770;2022-07-29T05:54:25;0.88;;;0.88;;
21352;SDS011;10834;52.268;6.770;2022-07-29T05:57:15;0.90;;;0.90;;
21352;SDS011;10834;52.268;6.770;2022-07-29T06:00:02;0.80;;;0.80;;
21352;SDS011;10834;52.268;6.770;2022-07-29T06:02:49;1.30;;;0.85;;
21352;SDS011;10834;52.268;6.770;2022-07-29T06:05:35;1.02;;;1.00;;
21352;SDS011;10834;52.268;6.770;2022-07-29T06:08:21;1.00;;;1.00;;
21352;SDS011;10834;52.268;6.770;2022-07-29T06:11:07;0.90;;;0.90;;
21352;SDS011;10834;52.268;6.770;2022-07-29T06:13:53;0.88;;;0.88;;
21352;SDS011;10834;52.268;6.770;2022-07-29T06:16:39;0.90;;;0.90;;
21352;SDS011;10834;52.268;6.770;2022-07-29T06:19:26;0.70;;;0.70;;
21352;SDS011;10834;52.268;6.770;2022-07-29T06:22:12;1.42;;;1.05;;
21352;SDS011;10834;52.268;6.770;2022-07-29T06:25:01;0.90;;;0.90;;
21352;SDS011;10834;52.268;6.770;2022-07-29T06:27:48;1.52;;;1.42;;
21352;SDS011;10834;52.268;6.770;2022-07-29T06:30:35;1.10;;;1.00;;
21352;SDS011;10834;52.268;6.770;2022-07-29T06:33:21;0.90;;;0.90;;
21352;SDS011;10834;52.268;6.770;2022-07-29T06:36:07;1.30;;;1.20;;
21352;SDS011;10834;52.268;6.770;2022-07-29T06:38:53;0.80;;;0.80;;
21352;SDS011;10834;52.268;6.770;2022-07-29T06:41:39;1.35;;;1.00;;
21352;SDS011;10834;52.268;6.770;2022-07-29T06:44:25;1.92;;;0.75;;
21352;SDS011;10834;52.268;6.770;2022-07-29T06:47:11;2.05;;;0.85;;
21352;SDS011;10834;52.268;6.770;2022-07-29T06:49:57;0.90;;;0.90;;
21352;SDS011;10834;52.268;6.770;2022-07-29T06:52:43;0.90;;;0.90;;
21352;SDS011;10834;52.268;6.770;2022-07-29T06:55:29;1.23;;;0.93;;
21352;SDS011;10834;52.268;6.770;2022-07-29T06:58:15;0.85;;;0.85;;
21352;SDS011;10834;52.268;6.770;2022-07-29T07:01:04;0.80;;;0.80;;
21352;SDS011;10834;52.268;6.770;2022-07-29T07:03:51;1.13;;;1.02;;
21352;SDS011;10834;52.268;6.770;2022-07-29T07:06:37;3.65;;;1.10;;
21352;SDS011;10834;52.268;6.770;2022-07-29T07:09:23;3.00;;;1.50;;
21352;SDS011;10834;52.268;6.770;2022-07-29T07:12:09;10.80;;;2.88;;
21352;SDS011;10834;52.268;6.770;2022-07-29T07:14:55;3.85;;;1.30;;
21352;SDS011;10834;52.268;6.770;2022-07-29T07:17:41;1.45;;;1.00;;
21352;SDS011;10834;52.268;6.770;2022-07-29T07:20:28;1.67;;;1.20;;
21352;SDS011;10834;52.268;6.770;2022-07-29T07:23:14;2.50;;;1.35;;
21352;SDS011;10834;52.268;6.770;2022-07-29T07:26:00;3.15;;;1.77;;
21352;SDS011;10834;52.268;6.770;2022-07-29T07:28:46;3.72;;;1.63;;
21352;SDS011;10834;52.268;6.770;2022-07-29T07:31:32;1.40;;;1.30;;
21352;SDS011;10834;52.268;6.770;2022-07-29T07:34:18;1.52;;;1.17;;
21352;SDS011;10834;52.268;6.770;2022-07-29T07:37:04;1.40;;;1.30;;
21352;SDS011;10834;52.268;6.770;2022-07-29T07:39:51;3.13;;;1.58;;
21352;SDS011;10834;52.268;6.770;2022-07-29T07:42:38;4.10;;;1.35;;
21352;SDS011;10834;52.268;6.770;2022-07-29T07:45:25;1.83;;;1.50;;
21352;SDS011;10834;52.268;6.770;2022-07-29T07:48:12;1.73;;;1.40;;
21352;SDS011;10834;52.268;6.770;2022-07-29T07:50:58;1.42;;;1.30;;
21352;SDS011;10834;52.268;6.770;2022-07-29T07:53:44;1.50;;;1.40;;
21352;SDS011;10834;52.268;6.770;2022-07-29T07:56:30;1.40;;;1.30;;
21352;SDS011;10834;52.268;6.770;2022-07-29T07:59:16;1.92;;;1.30;;
21352;SDS011;10834;52.268;6.770;2022-07-29T08:02:03;1.90;;;1.55;;
21352;SDS011;10834;52.268;6.770;2022-07-29T08:04:49;2.70;;;1.27;;
21352;SDS011;10834;52.268;6.770;2022-07-29T08:07:35;1.63;;;1.42;;
21352;SDS011;10834;52.268;6.770;2022-07-29T08:10:21;3.97;;;1.75;;
21352;SDS011;10834;52.268;6.770;2022-07-29T08:13:26;1.83;;;1.23;;
21352;SDS011;10834;52.268;6.770;2022-07-29T08:16:13;1.48;;;1.27;;
21352;SDS011;10834;52.268;6.770;2022-07-29T08:19:00;2.65;;;1.88;;
21352;SDS011;10834;52.268;6.770;2022-07-29T08:21:46;1.88;;;1.67;;
21352;SDS011;10834;52.268;6.770;2022-07-29T08:24:33;1.63;;;1.52;;
21352;SDS011;10834;52.268;6.770;2022-07-29T08:27:28;2.47;;;1.63;;
21352;SDS011;10834;52.268;6.770;2022-07-29T08:30:16;1.98;;;1.30;;
21352;SDS011;10834;52.268;6.770;2022-07-29T08:33:02;3.05;;;1.33;;
21352;SDS011;10834;52.268;6.770;2022-07-29T08:35:48;1.45;;;1.20;;
21352;SDS011;10834;52.268;6.770;2022-07-29T08:38:35;1.40;;;1.30;;
21352;SDS011;10834;52.268;6.770;2022-07-29T08:41:21;1.67;;;1.58;;
21352;SDS011;10834;52.268;6.770;2022-07-29T08:44:08;4.50;;;1.75;;
21352;SDS011;10834;52.268;6.770;2022-07-29T08:46:54;1.73;;;1.63;;
21352;SDS011;10834;52.268;6.770;2022-07-29T08:49:40;1.63;;;1.52;;
21352;SDS011;10834;52.268;6.770;2022-07-29T08:52:26;1.42;;;1.33;;
21352;SDS011;10834;52.268;6.770;2022-07-29T08:55:15;2.25;;;1.63;;
21352;SDS011;10834;52.268;6.770;2022-07-29T08:58:03;4.15;;;1.90;;
21352;SDS011;10834;52.268;6.770;2022-07-29T09:00:52;2.10;;;1.50;;
21352;SDS011;10834;52.268;6.770;2022-07-29T09:03:39;2.00;;;1.20;;
21352;SDS011;10834;52.268;6.770;2022-07-29T09:06:28;3.47;;;1.65;;
21352;SDS011;10834;52.268;6.770;2022-07-29T09:09:18;2.28;;;1.70;;
21352;SDS011;10834;52.268;6.770;2022-07-29T09:12:04;2.83;;;1.33;;
21352;SDS011;10834;52.268;6.770;2022-07-29T09:14:52;2.10;;;1.50;;
21352;SDS011;10834;52.268;6.770;2022-07-29T09:17:39;1.50;;;1.27;;
21352;SDS011;10834;52.268;6.770;2022-07-29T09:20:26;1.48;;;1.38;;
21352;SDS011;10834;52.268;6.770;2022-07-29T09:23:32;2.03;;;1.10;;
21352;SDS011;10834;52.268;6.770;2022-07-29T09:26:18;3.28;;;1.50;;
21352;SDS011;10834;52.268;6.770;2022-07-29T09:29:11;1.95;;;1.75;;
21352;SDS011;10834;52.268;6.770;2022-07-29T09:32:01;1.27;;;1.17;;
21352;SDS011;10834;52.268;6.770;2022-07-29T09:38:11;1.77;;;1.48;;
21352;SDS011;10834;52.268;6.770;2022-07-29T09:41:02;1.65;;;1.55;;
21352;SDS011;10834;52.268;6.770;2022-07-29T09:43:58;1.73;;;1.45;;
21352;SDS011;10834;52.268;6.770;2022-07-29T09:52:47;2.67;;;2.42;;
21352;SDS011;10834;52.268;6.770;2022-07-29T09:55:45;2.15;;;1.55;;
21352;SDS011;10834;52.268;6.770;2022-07-29T09:58:33;1.65;;;1.50;;
21352;SDS011;10834;52.268;6.770;2022-07-29T10:01:27;1.85;;;1.67;;
21352;SDS011;10834;52.268;6.770;2022-07-29T10:04:13;2.55;;;1.75;;
21352;SDS011;10834;52.268;6.770;2022-07-29T10:07:01;2.83;;;1.38;;
21352;SDS011;10834;52.268;6.770;2022-07-29T10:09:55;1.70;;;1.50;;
21352;SDS011;10834;52.268;6.770;2022-07-29T10:12:53;1.73;;;1.50;;
21352;SDS011;10834;52.268;6.770;2022-07-29T10:15:41;2.63;;;1.40;;
21352;SDS011;10834;52.268;6.770;2022-07-29T10:18:29;1.75;;;1.60;;
21352;SDS011;10834;52.268;6.770;2022-07-29T10:21:16;5.03;;;1.60;;
21352;SDS011;10834;52.268;6.770;2022-07-29T10:24:02;1.80;;;1.60;;
21352;SDS011;10834;52.268;6.770;2022-07-29T10:26:50;2.75;;;1.60;;
21352;SDS011;10834;52.268;6.770;2022-07-29T10:29:36;2.60;;;1.25;;
21352;SDS011;10834;52.268;6.770;2022-07-29T10:44:33;2.80;;;1.55;;
21352;SDS011;10834;52.268;6.770;2022-07-29T10:47:21;2.78;;;1.67;;
21352;SDS011;10834;52.268;6.770;2022-07-29T10:50:11;3.05;;;1.70;;
21352;SDS011;10834;52.268;6.770;2022-07-29T10:52:57;1.77;;;1.42;;
21352;SDS011;10834;52.268;6.770;2022-07-29T10:55:44;2.20;;;1.65;;
21352;SDS011;10834;52.268;6.770;2022-07-29T10:58:33;2.30;;;1.73;;
21352;SDS011;10834;52.268;6.770;2022-07-29T11:01:29;2.75;;;1.73;;
21352;SDS011;10834;52.268;6.770;2022-07-29T11:04:16;1.60;;;1.50;;
21352;SDS011;10834;52.268;6.770;2022-07-29T11:07:31;1.60;;;1.50;;
21352;SDS011;10834;52.268;6.770;2022-07-29T11:10:22;3.10;;;1.65;;
21352;SDS011;10834;52.268;6.770;2022-07-29T11:13:09;3.22;;;2.15;;
21352;SDS011;10834;52.268;6.770;2022-07-29T11:15:55;2.08;;;1.85;;
21352;SDS011;10834;52.268;6.770;2022-07-29T11:21:56;3.38;;;1.77;;
21352;SDS011;10834;52.268;6.770;2022-07-29T11:24:43;5.93;;;2.42;;
21352;SDS011;10834;52.268;6.770;2022-07-29T11:27:32;2.30;;;1.60;;
21352;SDS011;10834;52.268;6.770;2022-07-29T11:30:46;4.82;;;1.63;;
21352;SDS011;10834;52.268;6.770;2022-07-29T11:33:37;3.50;;;1.73;;
21352;SDS011;10834;52.268;6.770;2022-07-29T11:36:25;2.35;;;1.30;;
21352;SDS011;10834;52.268;6.770;2022-07-29T11:39:29;1.65;;;1.52;;
21352;SDS011;10834;52.268;6.770;2022-07-29T11:45:14;1.90;;;1.70;;
21352;SDS011;10834;52.268;6.770;2022-07-29T11:48:03;3.47;;;1.73;;
21352;SDS011;10834;52.268;6.770;2022-07-29T11:50:50;2.47;;;1.77;;
21352;SDS011;10834;52.268;6.770;2022-07-29T11:53:38;4.13;;;2.17;;
21352;SDS011;10834;52.268;6.770;2022-07-29T11:56:25;2.70;;;2.10;;
21352;SDS011;10834;52.268;6.770;2022-07-29T11:59:15;4.28;;;1.70;;
21352;SDS011;10834;52.268;6.770;2022-07-29T12:02:01;1.85;;;1.58;;
21352;SDS011;10834;52.268;6.770;2022-07-29T12:04:48;3.67;;;1.80;;
21352;SDS011;10834;52.268;6.770;2022-07-29T12:07:42;2.45;;;1.20;;
21352;SDS011;10834;52.268;6.770;2022-07-29T12:10:30;3.28;;;2.05;;
21352;SDS011;10834;52.268;6.770;2022-07-29T12:13:17;3.20;;;1.80;;
21352;SDS011;10834;52.268;6.770;2022-07-29T12:16:05;1.60;;;1.50;;
21352;SDS011;10834;52.268;6.770;2022-07-29T12:18:57;2.05;;;1.63;;
21352;SDS011;10834;52.268;6.770;2022-07-29T12:21:45;1.73;;;1.60;;
21352;SDS011;10834;52.268;6.770;2022-07-29T12:24:44;2.08;;;1.45;;
21352;SDS011;10834;52.268;6.770;2022-07-29T12:27:30;2.60;;;1.77;;
21352;SDS011;10834;52.268;6.770;2022-07-29T12:30:18;2.08;;;1.23;;
21352;SDS011;10834;52.268;6.770;2022-07-29T12:33:09;2.67;;;1.90;;
21352;SDS011;10834;52.268;6.770;2022-07-29T12:36:01;1.73;;;1.55;;
21352;SDS011;10834;52.268;6.770;2022-07-29T12:38:48;3.00;;;1.60;;
21352;SDS011;10834;52.268;6.770;2022-07-29T12:41:35;2.60;;;1.48;;
21352;SDS011;10834;52.268;6.770;2022-07-29T12:44:21;2.08;;;1.83;;
21352;SDS011;10834;52.268;6.770;2022-07-29T12:47:07;3.72;;;2.20;;
21352;SDS011;10834;52.268;6.770;2022-07-29T12:50:09;4.70;;;1.65;;
21352;SDS011;10834;52.268;6.770;2022-07-29T12:53:18;3.70;;;1.50;;
21352;SDS011;10834;52.268;6.770;2022-07-29T12:56:04;1.70;;;1.60;;
21352;SDS011;10834;52.268;6.770;2022-07-29T12:58:50;1.40;;;1.30;;
21352;SDS011;10834;52.268;6.770;2022-07-29T13:01:37;1.80;;;1.27;;
21352;SDS011;10834;52.268;6.770;2022-07-29T13:07:16;3.42;;;1.23;;
21352;SDS011;10834;52.268;6.770;2022-07-29T13:10:11;1.17;;;1.08;;
21352;SDS011;10834;52.268;6.770;2022-07-29T13:13:05;2.70;;;1.63;;
21352;SDS011;10834;52.268;6.770;2022-07-29T13:16:04;1.75;;;1.25;;
21352;SDS011;10834;52.268;6.770;2022-07-29T13:21:52;1.92;;;1.83;;
21352;SDS011;10834;52.268;6.770;2022-07-29T13:27:34;1.63;;;1.40;;
21352;SDS011;10834;52.268;6.770;2022-07-29T13:30:22;1.30;;;1.20;;
21352;SDS011;10834;52.268;6.770;2022-07-29T13:33:09;2.13;;;1.42;;
21352;SDS011;10834;52.268;6.770;2022-07-29T13:35:55;5.85;;;1.48;;
21352;SDS011;10834;52.268;6.770;2022-07-29T13:38:41;2.10;;;1.27;;
21352;SDS011;10834;52.268;6.770;2022-07-29T13:41:27;2.80;;;1.30;;
21352;SDS011;10834;52.268;6.770;2022-07-29T13:44:13;1.88;;;1.40;;
21352;SDS011;10834;52.268;6.770;2022-07-29T13:46:59;3.28;;;1.50;;
21352;SDS011;10834;52.268;6.770;2022-07-29T13:49:46;3.03;;;1.17;;
21352;SDS011;10834;52.268;6.770;2022-07-29T13:52:32;1.27;;;1.17;;
21352;SDS011;10834;52.268;6.770;2022-07-29T13:55:19;1.60;;;1.50;;
21352;SDS011;10834;52.268;6.770;2022-07-29T13:58:05;2.38;;;1.60;;
21352;SDS011;10834;52.268;6.770;2022-07-29T14:00:51;2.22;;;1.55;;
21352;SDS011;10834;52.268;6.770;2022-07-29T14:03:37;1.80;;;1.70;;
21352;SDS011;10834;52.268;6.770;2022-07-29T14:06:26;1.38;;;1.27;;
21352;SDS011;10834;52.268;6.770;2022-07-29T14:09:12;1.20;;;1.10;;
21352;SDS011;10834;52.268;6.770;2022-07-29T14:11:58;1.50;;;1.40;;
21352;SDS011;10834;52.268;6.770;2022-07-29T14:14:44;1.73;;;1.40;;
21352;SDS011;10834;52.268;6.770;2022-07-29T14:17:30;4.28;;;1.30;;
21352;SDS011;10834;52.268;6.770;2022-07-29T14:20:17;2.15;;;1.30;;
21352;SDS011;10834;52.268;6.770;2022-07-29T14:23:03;1.20;;;1.10;;
21352;SDS011;10834;52.268;6.770;2022-07-29T14:25:49;1.77;;;1.30;;
21352;SDS011;10834;52.268;6.770;2022-07-29T14:28:35;1.58;;;1.27;;
21352;SDS011;10834;52.268;6.770;2022-07-29T14:31:21;1.85;;;1.27;;
21352;SDS011;10834;52.268;6.770;2022-07-29T14:34:07;1.55;;;1.45;;
21352;SDS011;10834;52.268;6.770;2022-07-29T14:36:53;1.15;;;1.05;;
21352;SDS011;10834;52.268;6.770;2022-07-29T14:39:42;1.63;;;1.25;;
21352;SDS011;10834;52.268;6.770;2022-07-29T14:42:28;1.55;;;1.30;;
21352;SDS011;10834;52.268;6.770;2022-07-29T14:45:15;1.83;;;1.17;;
21352;SDS011;10834;52.268;6.770;2022-07-29T14:48:01;1.30;;;1.20;;
21352;SDS011;10834;52.268;6.770;2022-07-29T14:50:47;2.22;;;1.58;;
21352;SDS011;10834;52.268;6.770;2022-07-29T14:53:33;1.55;;;1.45;;
21352;SDS011;10834;52.268;6.770;2022-07-29T14:56:19;1.42;;;1.33;;
21352;SDS011;10834;52.268;6.770;2022-07-29T14:59:05;1.67;;;1.08;;
21352;SDS011;10834;52.268;6.770;2022-07-29T15:01:51;3.40;;;1.27;;
21352;SDS011;10834;52.268;6.770;2022-07-29T15:04:38;1.35;;;1.25;;
21352;SDS011;10834;52.268;6.770;2022-07-29T15:07:24;1.52;;;1.42;;
21352;SDS011;10834;52.268;6.770;2022-07-29T15:10:10;1.67;;;1.58;;
21352;SDS011;10834;52.268;6.770;2022-07-29T15:12:56;2.20;;;0.88;;
21352;SDS011;10834;52.268;6.770;2022-07-29T15:15:42;2.45;;;1.27;;
21352;SDS011;10834;52.268;6.770;2022-07-29T15:18:29;1.63;;;1.15;;
21352;SDS011;10834;52.268;6.770;2022-07-29T15:21:15;1.42;;;1.20;;
21352;SDS011;10834;52.268;6.770;2022-07-29T15:24:02;1.42;;;1.27;;
21352;SDS011;10834;52.268;6.770;2022-07-29T15:26:48;3.22;;;1.42;;
21352;SDS011;10834;52.268;6.770;2022-07-29T15:29:34;1.52;;;1.40;;
21352;SDS011;10834;52.268;6.770;2022-07-29T15:32:21;1.60;;;1.50;;
21352;SDS011;10834;52.268;6.770;2022-07-29T15:35:07;3.40;;;1.17;;
21352;SDS011;10834;52.268;6.770;2022-07-29T15:37:53;2.30;;;1.40;;
21352;SDS011;10834;52.268;6.770;2022-07-29T15:40:39;1.77;;;1.40;;
21352;SDS011;10834;52.268;6.770;2022-07-29T15:43:26;1.23;;;1.13;;
21352;SDS011;10834;52.268;6.770;2022-07-29T15:46:12;1.27;;;1.10;;
21352;SDS011;10834;52.268;6.770;2022-07-29T15:49:18;1.50;;;1.40;;
21352;SDS011;10834;52.268;6.770;2022-07-29T15:52:05;1.23;;;1.13;;
21352;SDS011;10834;52.268;6.770;2022-07-29T15:54:55;1.75;;;1.42;;
21352;SDS011;10834;52.268;6.770;2022-07-29T15:57:42;2.90;;;1.40;;
21352;SDS011;10834;52.268;6.770;2022-07-29T16:00:28;2.35;;;1.17;;
21352;SDS011;10834;52.268;6.770;2022-07-29T16:03:14;1.52;;;1.30;;
21352;SDS011;10834;52.268;6.770;2022-07-29T16:06:00;2.38;;;1.20;;
21352;SDS011;10834;52.268;6.770;2022-07-29T16:08:46;1.48;;;1.38;;
21352;SDS011;10834;52.268;6.770;2022-07-29T16:11:32;2.03;;;1.48;;
21352;SDS011;10834;52.268;6.770;2022-07-29T16:14:18;1.35;;;1.25;;
21352;SDS011;10834;52.268;6.770;2022-07-29T16:17:05;1.60;;;1.50;;
21352;SDS011;10834;52.268;6.770;2022-07-29T16:19:51;1.30;;;1.20;;
21352;SDS011;10834;52.268;6.770;2022-07-29T16:22:37;1.58;;;1.38;;
21352;SDS011;10834;52.268;6.770;2022-07-29T16:25:23;2.15;;;0.93;;
21352;SDS011;10834;52.268;6.770;2022-07-29T16:28:09;1.50;;;1.30;;
21352;SDS011;10834;52.268;6.770;2022-07-29T16:30:56;1.25;;;1.15;;
21352;SDS011;10834;52.268;6.770;2022-07-29T16:33:42;2.70;;;1.38;;
21352;SDS011;10834;52.268;6.770;2022-07-29T16:36:28;1.67;;;1.58;;
21352;SDS011;10834;52.268;6.770;2022-07-29T16:39:14;1.75;;;1.20;;
21352;SDS011;10834;52.268;6.770;2022-07-29T16:42:00;3.28;;;1.40;;
21352;SDS011;10834;52.268;6.770;2022-07-29T16:44:46;1.20;;;1.10;;
21352;SDS011;10834;52.268;6.770;2022-07-29T16:47:32;1.63;;;1.52;;
21352;SDS011;10834;52.268;6.770;2022-07-29T16:50:18;1.67;;;1.58;;
21352;SDS011;10834;52.268;6.770;2022-07-29T16:53:04;1.65;;;1.52;;
21352;SDS011;10834;52.268;6.770;2022-07-29T16:55:50;1.92;;;1.73;;
21352;SDS011;10834;52.268;6.770;2022-07-29T16:58:36;4.18;;;1.48;;
21352;SDS011;10834;52.268;6.770;2022-07-29T17:01:22;1.63;;;1.45;;
21352;SDS011;10834;52.268;6.770;2022-07-29T17:04:08;2.05;;;1.70;;
21352;SDS011;10834;52.268;6.770;2022-07-29T17:06:56;2.63;;;1.67;;
21352;SDS011;10834;52.268;6.770;2022-07-29T17:09:42;2.55;;;2.35;;
21352;SDS011;10834;52.268;6.770;2022-07-29T17:12:29;4.30;;;1.80;;
21352;SDS011;10834;52.268;6.770;2022-07-29T17:15:16;2.42;;;2.10;;
21352;SDS011;10834;52.268;6.770;2022-07-29T17:18:03;7.50;;;3.00;;
21352;SDS011;10834;52.268;6.770;2022-07-29T17:20:49;4.35;;;2.28;;
21352;SDS011;10834;52.268;6.770;2022-07-29T17:23:35;8.35;;;2.53;;
21352;SDS011;10834;52.268;6.770;2022-07-29T17:26:21;7.78;;;2.38;;
21352;SDS011;10834;52.268;6.770;2022-07-29T17:29:07;3.85;;;2.85;;
21352;SDS011;10834;52.268;6.770;2022-07-29T17:31:54;3.47;;;2.88;;
21352;SDS011;10834;52.268;6.770;2022-07-29T17:34:40;10.00;;;3.30;;
21352;SDS011;10834;52.268;6.770;2022-07-29T17:37:27;4.47;;;3.50;;
21352;SDS011;10834;52.268;6.770;2022-07-29T17:40:13;4.15;;;3.00;;